Time;durP1;ratioP1;P1;durP2;ratioP2;P2;SDS_P1;SDS_P2;PMS_P1;PMS_P2;Temp;Humidity;BMP_temperature;BMP_pressure;BME280_temperature;BME280_humidity;BME280_pressure;Samples;Min_cycle;Max_cycle;Signal;HPM_P1;HPM_P2
2022/10/16 00:01:22;;;;;;;13.10;5.53;;;;;;;3.60;65.18;101468.74;1688966;84;21620;-78
2022/10/16 00:03:49;;;;;;;10.43;6.00;;;;;;;3.59;65.35;101471.41;1656059;86;21074;-79
2022/10/16 00:06:18;;;;;;;9.40;5.95;;;;;;;3.58;65.49;101471.86;1655765;86;21485;-78
2022/10/16 00:08:47;;;;;;;9.00;5.70;;;;;;;3.57;65.55;101469.27;1655869;86;20963;-79
2022/10/16 00:11:21;;;;;;;11.65;5.92;;;;;;;3.53;65.70;101468.98;1656126;86;21015;-79
2022/10/16 00:13:49;;;;;;;9.45;5.67;;;;;;;3.50;65.78;101473.02;1651543;86;20951;-79
2022/10/16 00:16:16;;;;;;;10.03;5.40;;;;;;;3.47;65.88;101472.64;1656155;86;20982;-79
2022/10/16 00:18:44;;;;;;;8.83;5.42;;;;;;;3.43;65.96;101473.20;1656515;85;20983;-79
2022/10/16 00:21:16;;;;;;;12.07;5.80;;;;;;;3.40;66.09;101468.54;1655906;86;21936;-79
2022/10/16 00:23:44;;;;;;;8.68;5.30;;;;;;;3.39;66.07;101471.61;1692659;83;21023;-79
2022/10/16 00:26:14;;;;;;;9.93;5.08;;;;;;;3.37;66.14;101472.08;1704135;83;21092;-79
2022/10/16 00:28:41;;;;;;;10.70;5.65;;;;;;;3.36;66.21;101470.38;1712071;84;21026;-79
2022/10/16 00:31:10;;;;;;;10.25;5.62;;;;;;;3.34;66.33;101472.64;1712245;83;20943;-79
2022/10/16 00:33:39;;;;;;;8.70;5.25;;;;;;;3.31;66.37;101476.21;1711190;83;21978;-78
2022/10/16 00:36:09;;;;;;;8.78;5.47;;;;;;;3.28;66.37;101473.70;1666072;85;20982;-79
2022/10/16 00:38:35;;;;;;;8.68;5.37;;;;;;;3.24;66.44;101472.53;1655050;86;21470;-79
2022/10/16 00:41:02;;;;;;;10.58;5.75;;;;;;;3.22;66.54;101467.36;1655730;86;21631;-79
2022/10/16 00:43:54;;;;;;;10.80;5.90;;;;;;;3.20;66.62;101474.39;1656393;85;21050;-78
2022/10/16 00:46:30;;;;;;;10.08;5.85;;;;;;;3.18;66.67;101472.26;1683452;84;21936;-79
2022/10/16 00:49:06;;;;;;;9.53;5.42;;;;;;;3.14;66.76;101473.27;1683284;85;21030;-79
2022/10/16 00:51:41;;;;;;;10.00;5.67;;;;;;;3.11;66.84;101471.62;1682312;84;21026;-78
2022/10/16 00:54:18;;;;;;;10.03;5.55;;;;;;;3.09;66.90;101473.42;1689864;83;21131;-78
2022/10/16 00:56:45;;;;;;;11.05;5.47;;;;;;;3.08;67.01;101476.06;1709389;84;21090;-78
2022/10/16 00:59:26;;;;;;;8.63;5.85;;;;;;;3.04;67.07;101475.31;1711647;83;21047;-78
2022/10/16 01:01:53;;;;;;;9.65;5.37;;;;;;;3.03;67.08;101477.52;1711772;83;21070;-78
2022/10/16 01:04:21;;;;;;;8.45;5.42;;;;;;;2.99;66.98;101477.64;1712211;84;21002;-78
2022/10/16 01:07:24;;;;;;;9.05;5.08;;;;;;;2.93;67.01;101483.06;1711046;84;21061;-77
2022/10/16 01:10:03;;;;;;;11.22;5.50;;;;;;;2.90;67.08;101483.17;1664998;85;21038;-78
2022/10/16 01:12:57;;;;;;;9.68;5.35;;;;;;;2.84;67.13;101487.66;1678609;85;22009;-78
2022/10/16 01:15:44;;;;;;;9.58;5.65;;;;;;;2.80;67.20;101489.11;1678623;85;20936;-78
2022/10/16 01:18:30;;;;;;;8.68;5.40;;;;;;;2.74;67.24;101486.22;1678819;85;21039;-78
2022/10/16 01:21:06;;;;;;;8.03;5.37;;;;;;;2.70;67.27;101486.34;1681656;85;21007;-77
2022/10/16 01:23:59;;;;;;;8.50;5.03;;;;;;;2.62;67.27;101487.89;1681028;85;21046;-77
2022/10/16 01:27:02;;;;;;;8.48;5.20;;;;;;;2.57;67.38;101485.39;1671980;85;22258;-78
2022/10/16 01:29:59;;;;;;;8.08;5.30;;;;;;;2.55;67.46;101491.11;1655364;86;20990;-78
2022/10/16 01:32:38;;;;;;;10.82;5.40;;;;;;;2.48;67.56;101491.31;1655668;86;21057;-78
2022/10/16 01:35:26;;;;;;;8.38;5.25;;;;;;;2.43;67.71;101490.16;1655517;86;21000;-78
2022/10/16 01:38:10;;;;;;;8.68;5.08;;;;;;;2.41;67.84;101498.45;1655680;86;21046;-78
2022/10/16 01:40:40;;;;;;;9.63;5.17;;;;;;;2.40;67.90;101503.70;1655373;86;22056;-78
2022/10/16 01:43:15;;;;;;;11.53;5.37;;;;;;;2.37;67.91;101511.63;1656320;85;21001;-78
2022/10/16 01:45:43;;;;;;;10.20;5.20;;;;;;;2.34;67.97;101509.97;1681781;84;21027;-77
2022/10/16 01:48:09;;;;;;;10.40;5.05;;;;;;;2.32;68.04;101512.18;1683162;85;21113;-78
2022/10/16 01:50:39;;;;;;;8.75;5.22;;;;;;;2.28;68.01;101505.76;1697832;83;20955;-77
2022/10/16 01:53:07;;;;;;;10.40;5.12;;;;;;;2.22;68.01;101507.25;1711488;84;21667;-77
2022/10/16 01:55:37;;;;;;;9.83;5.45;;;;;;;2.18;68.16;101513.42;1713080;83;21406;-77
2022/10/16 01:58:06;;;;;;;7.58;5.40;;;;;;;2.18;68.27;101513.42;1712671;83;20966;-78
2022/10/16 02:00:36;;;;;;;8.38;5.10;;;;;;;2.17;68.45;101518.23;1644157;86;21042;-78
2022/10/16 02:03:03;;;;;;;10.90;5.10;;;;;;;2.17;68.63;101522.59;1639028;86;21073;-77
2022/10/16 02:05:44;;;;;;;8.95;5.37;;;;;;;2.17;68.69;101523.44;1656838;85;21925;-77
2022/10/16 02:08:12;;;;;;;8.93;5.70;;;;;;;2.18;68.80;101516.48;1657896;86;21047;-78
2022/10/16 02:10:40;;;;;;;9.63;6.33;;;;;;;2.20;68.86;101519.89;1657810;86;21062;-79
2022/10/16 02:13:19;;;;;;;10.95;5.47;;;;;;;2.19;68.91;101519.03;1657726;85;20998;-78
2022/10/16 02:15:47;;;;;;;12.43;6.20;;;;;;;2.19;68.95;101523.39;1640299;86;21027;-78
2022/10/16 02:18:14;;;;;;;8.68;5.53;;;;;;;2.17;69.02;101526.50;1659070;85;21925;-78
2022/10/16 02:20:52;;;;;;;9.38;6.15;;;;;;;2.16;69.13;101525.64;1679643;83;21027;-78
2022/10/16 02:23:37;;;;;;;10.32;6.17;;;;;;;2.14;69.27;101519.62;1713159;83;21377;-78
2022/10/16 02:26:07;;;;;;;7.97;5.92;;;;;;;2.13;69.45;101521.83;1703938;83;21084;-78
2022/10/16 02:28:47;;;;;;;10.58;6.35;;;;;;;2.14;69.63;101527.44;1713324;83;21104;-78
2022/10/16 02:31:18;;;;;;;8.68;6.17;;;;;;;2.15;69.73;101522.63;1713875;83;21951;-78
2022/10/16 02:33:45;;;;;;;10.78;6.72;;;;;;;2.15;69.75;101517.87;1705672;83;21038;-78
2022/10/16 02:36:12;;;;;;;11.68;6.65;;;;;;;2.16;69.88;101523.48;1657978;85;21071;-78
2022/10/16 02:38:40;;;;;;;9.35;6.15;;;;;;;2.16;69.94;101524.79;1657498;85;21003;-79
2022/10/16 02:41:07;;;;;;;9.45;6.45;;;;;;;2.14;69.79;101527.89;1674428;85;20982;-78
2022/10/16 02:43:34;;;;;;;9.90;6.60;;;;;;;2.09;69.73;101534.51;1684856;85;22312;-78
2022/10/16 02:46:01;;;;;;;9.70;5.97;;;;;;;2.05;69.81;101532.89;1683998;85;21022;-78
2022/10/16 02:48:27;;;;;;;13.48;6.47;;;;;;;2.04;69.78;101533.78;1665891;85;20979;-78
2022/10/16 02:50:54;;;;;;;11.33;6.03;;;;;;;1.99;69.75;101533.89;1684539;83;21018;-78
2022/10/16 02:53:20;;;;;;;10.38;6.78;;;;;;;1.97;69.77;101538.73;1713917;83;21034;-78
2022/10/16 02:55:47;;;;;;;10.70;6.40;;;;;;;1.95;69.81;101534.02;1698644;83;21970;-78
2022/10/16 02:58:13;;;;;;;12.33;6.28;;;;;;;1.93;69.92;101537.08;1689986;85;20996;-78
2022/10/16 03:00:39;;;;;;;9.88;6.47;;;;;;;1.92;69.97;101531.47;1684928;84;21041;-76
2022/10/16 03:03:06;;;;;;;8.75;6.05;;;;;;;1.92;70.02;101535.37;1691097;84;20981;-78
2022/10/16 03:05:32;;;;;;;12.60;6.70;;;;;;;1.91;69.92;101530.61;1690821;84;21093;-77
2022/10/16 03:08:00;;;;;;;10.32;6.40;;;;;;;1.88;69.79;101535.91;1677667;85;21983;-77
2022/10/16 03:10:27;;;;;;;10.68;5.97;;;;;;;1.85;69.79;101541.66;1636854;86;20953;-77
2022/10/16 03:12:54;;;;;;;10.80;6.37;;;;;;;1.83;69.79;101544.72;1636986;87;21008;-77
2022/10/16 03:15:20;;;;;;;9.98;6.67;;;;;;;1.79;69.79;101541.34;1637436;86;21053;-77
2022/10/16 03:17:47;;;;;;;9.93;6.20;;;;;;;1.76;69.72;101545.34;1637644;87;21456;-76
2022/10/16 03:20:13;;;;;;;10.40;6.42;;;;;;;1.72;69.73;101551.50;1636812;87;22563;-78
2022/10/16 03:22:40;;;;;;;9.38;6.65;;;;;;;1.70;69.85;101553.29;1681387;84;21131;-78
2022/10/16 03:25:08;;;;;;;9.60;6.75;;;;;;;1.67;69.99;101551.63;1691966;85;20997;-77
2022/10/16 03:27:35;;;;;;;10.48;6.58;;;;;;;1.67;70.03;101550.32;1691237;85;20978;-78
2022/10/16 03:30:01;;;;;;;10.38;6.72;;;;;;;1.65;69.95;101558.63;1691677;84;21080;-78
2022/10/16 03:32:28;;;;;;;11.40;6.78;;;;;;;1.64;69.96;101559.93;1691423;84;21927;-77
2022/10/16 03:34:56;;;;;;;12.13;6.65;;;;;;;1.61;70.07;101562.17;1691247;83;20977;-78
2022/10/16 03:37:23;;;;;;;10.58;7.35;;;;;;;1.62;70.24;101558.67;1691597;83;21080;-77
2022/10/16 03:39:49;;;;;;;13.62;7.28;;;;;;;1.65;70.44;101560.38;1691294;83;21099;-77
2022/10/16 03:42:16;;;;;;;11.40;7.40;;;;;;;1.69;70.66;101559.39;1680931;84;21010;-78
2022/10/16 03:44:42;;;;;;;10.82;7.75;;;;;;;1.72;70.77;101560.61;1664935;85;21900;-77
2022/10/16 03:47:09;;;;;;;11.90;7.33;;;;;;;1.75;70.86;101573.59;1663030;86;20980;-78
2022/10/16 03:49:36;;;;;;;11.12;7.72;;;;;;;1.78;70.88;101566.14;1662802;85;20993;-78
2022/10/16 03:52:03;;;;;;;10.80;6.80;;;;;;;1.79;70.91;101568.70;1682039;83;21052;-78
2022/10/16 03:54:30;;;;;;;10.28;6.62;;;;;;;1.84;70.89;101571.21;1689825;85;21012;-78
2022/10/16 03:56:57;;;;;;;10.35;6.65;;;;;;;1.81;70.75;101571.26;1690377;84;22080;-78
2022/10/16 03:59:23;;;;;;;14.00;7.70;;;;;;;1.79;70.85;101572.61;1668795;84;21516;-79
2022/10/16 04:01:50;;;;;;;13.60;7.28;;;;;;;1.81;71.04;101572.56;1636073;87;21072;-78
2022/10/16 04:04:17;;;;;;;11.78;7.47;;;;;;;1.84;71.20;101575.12;1635751;86;21100;-78
2022/10/16 04:06:44;;;;;;;10.65;7.53;;;;;;;1.86;71.25;101576.78;1636696;87;20997;-78
2022/10/16 04:09:11;;;;;;;10.15;7.33;;;;;;;1.89;71.23;101573.23;1635690;85;21860;-78
2022/10/16 04:11:39;;;;;;;12.53;7.80;;;;;;;1.91;71.25;101577.52;1633827;87;21080;-78
2022/10/16 04:14:07;;;;;;;10.58;7.65;;;;;;;1.94;71.28;101581.81;1635063;87;21471;-78
2022/10/16 04:16:35;;;;;;;10.63;7.20;;;;;;;1.95;71.34;101580.47;1650550;84;21028;-78
2022/10/16 04:19:02;;;;;;;11.03;7.20;;;;;;;1.95;71.24;101582.22;1690176;85;21057;-78
2022/10/16 04:21:30;;;;;;;9.80;7.25;;;;;;;1.94;71.11;101582.67;1690130;84;21964;-77
2022/10/16 04:23:57;;;;;;;9.83;7.25;;;;;;;1.91;71.06;101580.56;1690269;83;20957;-79
2022/10/16 04:26:24;;;;;;;15.55;7.50;;;;;;;1.91;71.17;101584.47;1690117;85;21021;-79
2022/10/16 04:28:50;;;;;;;10.95;7.00;;;;;;;1.93;71.24;101586.59;1689963;85;21060;-79
2022/10/16 04:31:17;;;;;;;13.75;8.30;;;;;;;1.94;71.41;101585.27;1690021;83;20975;-79
2022/10/16 04:33:44;;;;;;;9.90;7.83;;;;;;;2.00;71.64;101589.02;1660478;85;21937;-78
2022/10/16 04:36:10;;;;;;;14.20;9.35;;;;;;;2.08;71.95;101591.88;1635003;85;21024;-78
2022/10/16 04:38:39;;;;;;;13.45;9.13;;;;;;;2.16;72.26;101593.41;1634206;86;21045;-79
2022/10/16 04:41:07;;;;;;;13.95;8.73;;;;;;;2.23;72.46;101591.52;1635351;87;21033;-79
2022/10/16 04:43:34;;;;;;;11.93;8.60;;;;;;;2.29;72.59;101595.25;1644439;84;21021;-78
2022/10/16 04:46:01;;;;;;;11.93;8.65;;;;;;;2.32;72.64;101600.41;1635648;87;22006;-79
2022/10/16 04:48:28;;;;;;;12.45;9.03;;;;;;;2.36;72.75;101598.56;1635500;87;20977;-78
2022/10/16 04:50:54;;;;;;;11.10;8.68;;;;;;;2.40;72.86;101597.58;1651250;86;20981;-79
2022/10/16 04:53:22;;;;;;;13.00;9.13;;;;;;;2.45;72.97;101603.54;1662273;85;21032;-79
2022/10/16 04:55:50;;;;;;;12.35;9.18;;;;;;;2.49;73.07;101609.07;1670986;83;20978;-78
2022/10/16 04:58:17;;;;;;;14.93;9.65;;;;;;;2.54;73.17;101613.73;1665222;84;21921;-78
2022/10/16 05:00:45;;;;;;;13.40;9.38;;;;;;;2.59;73.31;101611.84;1684925;85;20991;-78
2022/10/16 05:03:13;;;;;;;13.25;9.23;;;;;;;2.65;73.48;101616.91;1684568;85;21513;-78
2022/10/16 05:05:44;;;;;;;14.53;9.55;;;;;;;2.70;73.59;101620.68;1684931;85;21034;-78
2022/10/16 05:08:13;;;;;;;15.08;9.50;;;;;;;2.73;73.71;101618.86;1683043;83;21090;-79
2022/10/16 05:10:44;;;;;;;15.98;10.43;;;;;;;2.80;73.84;101616.50;1694636;83;22026;-78
2022/10/16 05:13:12;;;;;;;17.42;10.18;;;;;;;2.87;73.91;101614.56;1704465;83;21018;-78
2022/10/16 05:15:38;;;;;;;14.58;10.08;;;;;;;2.94;74.03;101621.78;1713693;83;21429;-78
2022/10/16 05:18:05;;;;;;;18.52;10.43;;;;;;;2.99;74.14;101625.09;1714005;83;21038;-78
2022/10/16 05:20:31;;;;;;;18.23;10.93;;;;;;;3.06;74.32;101627.50;1713627;83;21027;-79
2022/10/16 05:22:58;;;;;;;15.95;10.82;;;;;;;3.16;74.59;101628.95;1713795;83;21787;-79
2022/10/16 05:25:24;;;;;;;17.32;10.82;;;;;;;3.27;74.79;101630.39;1667017;83;20999;-78
2022/10/16 05:27:51;;;;;;;16.50;11.53;;;;;;;3.36;74.95;101627.52;1658460;83;21603;-79
2022/10/16 05:30:17;;;;;;;17.75;12.10;;;;;;;3.46;75.13;101630.26;1712780;83;21451;-79
2022/10/16 05:32:50;;;;;;;15.25;11.68;;;;;;;3.59;75.41;101635.98;1713709;83;21481;-79
2022/10/16 05:35:17;;;;;;;16.00;11.18;;;;;;;3.73;75.68;101635.10;1713991;83;22913;-79
2022/10/16 05:37:45;;;;;;;16.07;11.48;;;;;;;3.90;75.94;101635.89;1713344;83;20975;-79
2022/10/16 05:40:12;;;;;;;17.07;11.50;;;;;;;4.02;76.13;101638.96;1713714;83;21116;-78
2022/10/16 05:42:40;;;;;;;15.88;11.80;;;;;;;4.13;76.29;101641.23;1675370;83;21042;-78
2022/10/16 05:45:09;;;;;;;15.75;12.03;;;;;;;4.26;76.51;101644.31;1684866;85;21027;-79
2022/10/16 05:47:41;;;;;;;15.30;11.78;;;;;;;4.38;76.70;101645.20;1643607;85;21919;-79
2022/10/16 05:50:09;;;;;;;17.05;12.00;;;;;;;4.53;76.95;101648.59;1684757;85;20966;-78
2022/10/16 05:52:36;;;;;;;14.00;10.98;;;;;;;4.68;77.23;101649.00;1684692;84;21489;-78
2022/10/16 05:55:06;;;;;;;13.62;11.40;;;;;;;4.84;77.44;101652.34;1675378;83;20987;-79
2022/10/16 05:57:32;;;;;;;18.32;12.10;;;;;;;4.97;77.63;101651.45;1706097;83;21055;-79
2022/10/16 05:59:59;;;;;;;15.55;11.38;;;;;;;5.13;77.87;101652.61;1632468;88;22574;-80
2022/10/16 06:02:25;;;;;;;14.38;9.95;;;;;;;5.28;78.07;101659.49;1653003;86;20900;-81
2022/10/16 06:04:53;;;;;;;18.30;11.88;;;;;;;5.40;78.25;101656.41;1652852;86;21626;-79
2022/10/16 06:07:21;;;;;;;15.75;12.30;;;;;;;5.59;78.65;101660.05;1632344;88;21095;-79
2022/10/16 06:09:50;;;;;;;14.43;11.45;;;;;;;5.75;78.78;101665.56;1653175;86;20991;-79
2022/10/16 06:12:16;;;;;;;15.78;10.93;;;;;;;5.86;78.86;101665.14;1652980;86;21906;-79
2022/10/16 06:14:43;;;;;;;13.40;10.95;;;;;;;5.95;78.86;101670.91;1654163;85;21081;-79
2022/10/16 06:17:11;;;;;;;17.10;11.35;;;;;;;6.05;78.86;101670.09;1634408;86;21540;-79
2022/10/16 06:19:37;;;;;;;16.15;11.73;;;;;;;6.13;78.93;101675.03;1632327;88;20990;-79
2022/10/16 06:22:04;;;;;;;14.33;12.03;;;;;;;6.24;79.02;101680.23;1704817;83;21050;-80
2022/10/16 06:24:31;;;;;;;18.75;12.88;;;;;;;6.36;79.16;101680.19;1700905;83;22331;-80
2022/10/16 06:26:58;;;;;;;15.40;11.93;;;;;;;6.50;79.26;101684.89;1706604;83;20952;-80
2022/10/16 06:29:24;;;;;;;16.82;12.50;;;;;;;6.59;79.26;101690.61;1709113;84;20980;-80
2022/10/16 06:31:52;;;;;;;18.85;12.68;;;;;;;6.71;79.28;101691.86;1699427;84;21124;-79
2022/10/16 06:34:19;;;;;;;16.75;13.20;;;;;;;6.82;79.34;101696.19;1633357;84;21113;-80
2022/10/16 06:36:45;;;;;;;16.57;13.95;;;;;;;6.96;79.39;101701.33;1652960;86;22016;-79
2022/10/16 06:39:12;;;;;;;19.30;13.75;;;;;;;7.08;79.43;101702.11;1652880;86;21023;-80
2022/10/16 06:41:39;;;;;;;19.45;15.45;;;;;;;7.22;79.42;101701.48;1655706;85;20951;-79
2022/10/16 06:44:15;;;;;;;20.68;15.70;;;;;;;7.36;79.45;101703.06;1659021;86;21046;-80
2022/10/16 06:46:43;;;;;;;23.00;15.95;;;;;;;7.49;79.24;101705.98;1680360;85;21081;-81
2022/10/16 06:49:09;;;;;;;24.07;15.80;;;;;;;7.59;79.12;101708.11;1658071;86;21905;-80
2022/10/16 06:51:40;;;;;;;21.23;16.48;;;;;;;7.69;78.93;101708.08;1680568;84;21478;-80
2022/10/16 06:54:04;;;;;;;19.60;15.50;;;;;;;7.83;78.88;101707.46;1658599;86;21039;-79
2022/10/16 06:56:31;;;;;;;18.98;14.63;;;;;;;7.96;78.73;101712.52;1684154;83;21021;-79
2022/10/16 06:58:58;;;;;;;21.50;15.65;;;;;;;8.11;78.54;101714.05;1689349;84;21029;-79
2022/10/16 07:01:25;;;;;;;20.75;15.70;;;;;;;8.23;78.21;101714.31;1689386;85;21832;-80
2022/10/16 07:03:52;;;;;;;18.50;14.78;;;;;;;8.37;77.91;101720.24;1689191;85;21053;-80
2022/10/16 07:06:22;;;;;;;18.50;14.53;;;;;;;8.47;77.46;101717.55;1668813;84;21080;-79
2022/10/16 07:08:50;;;;;;;20.60;13.80;;;;;;;8.55;76.89;101719.34;1634520;87;21578;-79
2022/10/16 07:11:20;;;;;;;17.85;13.13;;;;;;;8.59;76.45;101712.16;1634740;87;21415;-79
2022/10/16 07:13:50;;;;;;;17.52;13.10;;;;;;;8.68;76.07;101719.58;1616053;87;50878;-80
2022/10/16 07:16:20;;;;;;;19.32;13.50;;;;;;;8.78;75.63;101726.55;1635255;87;21006;-80
2022/10/16 07:18:49;;;;;;;17.67;12.30;;;;;;;8.87;75.18;101724.30;1634766;87;21452;-79
2022/10/16 07:21:20;;;;;;;19.23;13.30;;;;;;;9.03;74.75;101724.38;1672653;84;21001;-80
2022/10/16 07:23:53;;;;;;;21.15;13.68;;;;;;;9.20;74.16;101728.80;1654441;84;20989;-79
2022/10/16 07:26:20;;;;;;;15.75;12.15;;;;;;;9.34;73.48;101724.95;1634909;86;21943;-80
2022/10/16 07:28:47;;;;;;;18.37;11.63;;;;;;;9.46;72.84;101723.01;1633857;87;20981;-81
2022/10/16 07:31:15;;;;;;;19.25;12.40;;;;;;;9.50;71.49;101728.96;1635019;86;21044;-80
2022/10/16 07:33:44;;;;;;;14.68;10.43;;;;;;;9.45;70.82;101725.70;1610666;86;21032;-80
2022/10/16 07:36:12;;;;;;;16.67;11.55;;;;;;;9.44;70.12;101727.48;1583331;90;21111;-80
2022/10/16 07:38:38;;;;;;;14.98;10.82;;;;;;;9.43;69.63;101723.62;1564026;90;22659;-79
2022/10/16 07:41:07;;;;;;;13.75;9.90;;;;;;;9.51;69.22;101720.58;1583858;89;20988;-80
2022/10/16 07:43:35;;;;;;;14.90;10.50;;;;;;;9.56;68.88;101722.05;1634395;86;21044;-79
2022/10/16 07:46:02;;;;;;;15.45;9.98;;;;;;;9.63;68.64;101719.44;1615944;87;21035;-80
2022/10/16 07:48:32;;;;;;;20.55;10.35;;;;;;;9.74;68.36;101723.66;1632298;87;21006;-80
2022/10/16 07:51:00;;;;;;;13.20;9.60;;;;;;;9.85;68.24;101715.66;1609531;87;22009;-79
2022/10/16 07:53:27;;;;;;;12.60;9.35;;;;;;;9.93;68.01;101716.91;1632226;87;21061;-80
2022/10/16 07:55:59;;;;;;;12.55;9.13;;;;;;;10.01;67.94;101718.66;1632800;85;21108;-79
2022/10/16 07:58:27;;;;;;;12.58;8.68;;;;;;;10.08;67.44;101717.02;1665942;86;20982;-81
2022/10/16 08:00:55;;;;;;;11.85;9.05;;;;;;;10.15;67.29;101725.83;1671159;86;21005;-80
2022/10/16 08:03:23;;;;;;;12.25;8.60;;;;;;;10.25;66.75;101725.73;1671113;85;21856;-81
2022/10/16 08:05:50;;;;;;;11.65;8.58;;;;;;;10.37;66.02;101726.81;1670964;84;21104;-80
2022/10/16 08:08:17;;;;;;;13.38;8.53;;;;;;;10.43;65.58;101722.52;1671099;85;21026;-80
2022/10/16 08:10:43;;;;;;;15.32;8.65;;;;;;;10.47;65.14;101725.82;1660227;85;21025;-81
2022/10/16 08:13:14;;;;;;;15.80;8.10;;;;;;;10.54;64.69;101728.03;1643945;87;21016;-81
2022/10/16 08:15:41;;;;;;;11.63;7.87;;;;;;;10.60;64.25;101726.33;1668570;86;21846;-81
2022/10/16 08:18:09;;;;;;;11.83;7.10;;;;;;;10.72;63.37;101727.91;1670993;85;20998;-80
2022/10/16 08:20:35;;;;;;;9.30;6.70;;;;;;;10.78;62.94;101724.88;1653783;85;21040;-80
2022/10/16 08:23:02;;;;;;;10.88;6.45;;;;;;;10.87;62.26;101725.66;1671029;86;21013;-81
2022/10/16 08:25:29;;;;;;;9.48;6.25;;;;;;;10.94;61.64;101720.88;1671160;86;20978;-81
2022/10/16 08:27:55;;;;;;;8.55;7.20;;;;;;;10.99;61.30;101723.61;1671211;85;22532;-81
2022/10/16 08:30:23;;;;;;;12.10;7.40;;;;;;;11.08;61.51;101716.92;1671169;86;21463;-79
2022/10/16 08:32:52;;;;;;;7.50;5.55;;;;;;;11.16;61.77;101720.81;1670561;85;20997;-80
2022/10/16 08:35:19;;;;;;;8.63;5.85;;;;;;;11.29;61.03;101709.48;1671281;84;20989;-81
2022/10/16 08:37:47;;;;;;;7.22;5.10;;;;;;;11.38;60.81;101713.73;1656355;84;21007;-81
2022/10/16 08:40:20;;;;;;;8.00;6.20;;;;;;;11.45;60.56;101715.54;1650673;87;21837;-80
2022/10/16 08:42:59;;;;;;;6.45;4.15;;;;;;;11.52;58.80;101716.02;1662401;86;21068;-81
2022/10/16 08:45:43;;;;;;;6.58;4.25;;;;;;;11.58;58.37;101718.27;1669276;85;20974;-80
2022/10/16 08:48:30;;;;;;;6.55;4.30;;;;;;;11.65;57.51;101720.91;1663241;85;20958;-80
2022/10/16 08:50:56;;;;;;;6.67;5.22;;;;;;;11.67;56.76;101726.48;1643336;87;20985;-80
2022/10/16 08:53:37;;;;;;;7.83;4.75;;;;;;;11.61;57.02;101727.36;1643978;85;21925;-79
2022/10/16 08:56:05;;;;;;;10.18;4.45;;;;;;;11.64;57.15;101723.19;1643921;86;21021;-80
2022/10/16 08:58:32;;;;;;;5.90;4.15;;;;;;;11.61;56.08;101730.00;1654757;86;21043;-80
2022/10/16 09:01:03;;;;;;;7.22;4.15;;;;;;;11.50;55.63;101728.50;1654793;86;21038;-81
2022/10/16 09:03:56;;;;;;;8.15;4.10;;;;;;;11.52;55.41;101729.25;1684158;83;20971;-79
2022/10/16 09:07:03;;;;;;;8.63;6.00;;;;;;;11.58;55.40;101730.17;1683469;84;21831;-79
2022/10/16 09:09:37;;;;;;;7.35;4.62;;;;;;;11.73;55.63;101722.61;1682322;84;21034;-79
2022/10/16 09:12:21;;;;;;;6.65;4.87;;;;;;;11.89;54.94;101719.42;1682556;84;21018;-80
2022/10/16 09:15:08;;;;;;;7.10;5.10;;;;;;;12.01;55.18;101729.70;1682900;85;21084;-79
2022/10/16 09:18:03;;;;;;;9.93;6.15;;;;;;;12.04;54.72;101726.36;1682255;84;20979;-80
2022/10/16 09:20:51;;;;;;;6.47;5.70;;;;;;;11.92;55.82;101724.51;1682404;85;22393;-80
2022/10/16 09:23:30;;;;;;;8.88;5.10;;;;;;;11.95;55.67;101729.59;1673563;85;20991;-81
2022/10/16 09:25:58;;;;;;;6.62;3.70;;;;;;;12.09;55.33;101727.41;1682554;85;20982;-81
2022/10/16 09:28:25;;;;;;;6.12;3.70;;;;;;;12.22;53.64;101730.95;1682449;84;21117;-80
2022/10/16 09:30:54;;;;;;;7.12;4.15;;;;;;;12.28;51.89;101733.70;1682470;85;20990;-80
2022/10/16 09:33:30;;;;;;;6.92;4.40;;;;;;;12.26;52.42;101734.28;1687814;83;22306;-80
2022/10/16 09:35:58;;;;;;;6.75;4.70;;;;;;;12.38;53.02;101728.17;1711206;83;20959;-80
2022/10/16 09:38:33;;;;;;;5.17;4.22;;;;;;;12.46;52.42;101732.50;1709850;84;20994;-79
2022/10/16 09:41:02;;;;;;;8.60;4.33;;;;;;;12.44;52.11;101735.70;1696018;83;21061;-81
2022/10/16 09:43:43;;;;;;;6.37;4.05;;;;;;;12.48;52.62;101729.75;1662954;83;20969;-80
2022/10/16 09:46:34;;;;;;;6.12;3.85;;;;;;;12.68;51.88;101732.40;1648610;86;22562;-80
2022/10/16 09:49:25;;;;;;;6.53;3.30;;;;;;;12.69;49.75;101721.69;1655252;86;21095;-79
2022/10/16 09:52:13;;;;;;;5.58;3.33;;;;;;;12.65;49.42;101725.98;1644302;86;21085;-79
2022/10/16 09:54:52;;;;;;;6.03;3.42;;;;;;;12.69;48.68;101735.42;1649736;87;20989;-79
2022/10/16 09:57:19;;;;;;;5.35;2.70;;;;;;;12.69;49.04;101732.30;1631196;87;21321;-82
2022/10/16 09:59:51;;;;;;;4.03;2.22;;;;;;;12.88;47.46;101734.08;1649785;86;20970;-81
2022/10/16 10:02:36;;;;;;;4.15;2.00;;;;;;;12.95;45.90;101725.73;1654591;86;20969;-80
2022/10/16 10:05:05;;;;;;;4.55;2.15;;;;;;;13.00;45.14;101726.25;1654249;86;21024;-82
2022/10/16 10:07:35;;;;;;;3.15;2.05;;;;;;;13.08;44.40;101714.16;1689165;83;21031;-80
2022/10/16 10:10:04;;;;;;;6.78;2.70;;;;;;;13.17;44.25;101716.66;1688189;84;20946;-81
2022/10/16 10:12:34;;;;;;;3.33;1.98;;;;;;;13.20;44.38;101703.20;1707147;83;21453;-81
2022/10/16 10:15:13;;;;;;;4.72;2.22;;;;;;;13.27;43.42;101702.31;1654435;86;21040;-82
2022/10/16 10:17:53;;;;;;;4.25;2.15;;;;;;;13.32;43.72;101708.16;1652970;86;21129;-82
2022/10/16 10:20:28;;;;;;;3.17;2.00;;;;;;;13.45;43.89;101707.66;1654690;86;21038;-82
2022/10/16 10:22:55;;;;;;;5.58;1.75;;;;;;;13.57;43.13;101698.83;1654590;86;21069;-83
2022/10/16 10:25:40;;;;;;;4.03;2.00;;;;;;;13.55;42.40;101699.91;1654249;86;21957;-82
2022/10/16 10:28:30;;;;;;;5.42;1.90;;;;;;;13.51;42.55;101697.95;1654577;86;20975;-82
2022/10/16 10:31:27;;;;;;;3.52;1.77;;;;;;;13.62;42.69;101693.21;1655486;85;21015;-82
2022/10/16 10:34:25;;;;;;;2.58;1.80;;;;;;;13.76;42.47;101694.39;1696000;83;21034;-78
2022/10/16 10:36:59;;;;;;;3.77;1.90;;;;;;;13.93;42.51;101690.52;1654573;86;21054;-80
2022/10/16 10:39:37;;;;;;;2.60;2.10;;;;;;;14.03;41.52;101694.20;1654423;86;22559;-81
2022/10/16 10:42:09;;;;;;;2.77;1.95;;;;;;;13.91;41.49;101687.13;1661365;84;21516;-81
2022/10/16 10:45:09;;;;;;;9.50;2.40;;;;;;;13.90;41.61;101690.75;1682559;85;21002;-81
2022/10/16 10:48:03;;;;;;;3.22;1.90;;;;;;;13.90;42.13;101692.08;1681022;85;21004;-81
2022/10/16 10:50:58;;;;;;;4.70;2.30;;;;;;;14.10;42.56;101692.80;1667557;85;21062;-79
2022/10/16 10:53:33;;;;;;;3.85;2.45;;;;;;;14.42;43.30;101697.06;1682337;85;21815;-81
2022/10/16 10:56:20;;;;;;;4.92;2.58;;;;;;;14.71;42.60;101692.24;1680493;85;20998;-81
2022/10/16 10:59:10;;;;;;;4.87;2.37;;;;;;;14.93;41.70;101684.79;1593505;85;21352;-82
2022/10/16 11:02:02;;;;;;;3.58;2.40;;;;;;;15.04;40.90;101686.63;1660120;85;21011;-79
2022/10/16 11:05:08;;;;;;;4.72;2.10;;;;;;;14.97;40.46;101687.60;1650829;85;20976;-81
2022/10/16 11:07:54;;;;;;;5.17;2.10;;;;;;;14.88;40.27;101683.83;1648138;86;21524;-80
2022/10/16 11:10:44;;;;;;;3.37;2.37;;;;;;;14.73;40.68;101682.33;1648203;86;21014;-82
2022/10/16 11:13:37;;;;;;;3.65;2.30;;;;;;;14.78;40.52;101682.84;1644603;86;21052;-81
2022/10/16 11:16:18;;;;;;;3.50;2.30;;;;;;;14.67;40.76;101680.16;1648289;86;21020;-82
2022/10/16 11:19:00;;;;;;;3.50;2.20;;;;;;;14.73;41.52;101675.68;1648234;85;21439;-81
2022/10/16 11:21:26;;;;;;;3.30;2.15;;;;;;;14.96;40.76;101682.38;1648968;85;22251;-81
2022/10/16 11:24:08;;;;;;;4.28;2.42;;;;;;;15.04;39.63;101683.96;1625895;85;21064;-80
2022/10/16 11:26:36;;;;;;;7.17;2.60;;;;;;;14.95;40.40;101684.67;1648378;85;21072;-81
2022/10/16 11:29:02;;;;;;;4.92;2.45;;;;;;;14.93;39.42;101679.95;1605331;88;21048;-82
2022/10/16 11:31:41;;;;;;;5.45;3.20;;;;;;;14.82;40.42;101667.48;1613522;87;21049;-81
2022/10/16 11:34:39;;;;;;;3.95;2.60;;;;;;;15.05;41.22;101660.37;1644831;86;21971;-82
2022/10/16 11:37:25;;;;;;;4.83;2.77;;;;;;;15.30;40.19;101656.17;1653041;86;21354;-81
2022/10/16 11:39:53;;;;;;;4.25;2.40;;;;;;;15.55;40.06;101651.08;1673292;85;21018;-82
2022/10/16 11:42:23;;;;;;;3.95;2.77;;;;;;;15.79;39.49;101650.94;1673445;85;21412;-81
2022/10/16 11:45:04;;;;;;;7.15;2.70;;;;;;;15.89;38.75;101654.55;1671814;85;21084;-81
2022/10/16 11:47:35;;;;;;;5.20;2.90;;;;;;;15.79;38.11;101654.94;1673272;85;22512;-81